sensor_id;sensor_type;location;lat;lon;timestamp;P1;durP1;ratioP1;P2;durP2;ratioP2
5351;SDS011;2698;51.454;6.736;2022-11-15T00:01:54;14.23;;;10.40;;
5351;SDS011;2698;51.454;6.736;2022-11-15T00:04:22;17.07;;;10.40;;
5351;SDS011;2698;51.454;6.736;2022-11-15T00:06:48;17.47;;;11.43;;
5351;SDS011;2698;51.454;6.736;2022-11-15T00:09:15;19.80;;;13.07;;
5351;SDS011;2698;51.454;6.736;2022-11-15T00:11:42;26.07;;;13.40;;
5351;SDS011;2698;51.454;6.736;2022-11-15T00:14:09;45.10;;;14.40;;
5351;SDS011;2698;51.454;6.736;2022-11-15T00:16:35;26.00;;;14.23;;
5351;SDS011;2698;51.454;6.736;2022-11-15T00:19:02;26.20;;;13.70;;
5351;SDS011;2698;51.454;6.736;2022-11-15T00:21:30;28.50;;;14.20;;
5351;SDS011;2698;51.454;6.736;2022-11-15T00:23:57;30.10;;;16.40;;
5351;SDS011;2698;51.454;6.736;2022-11-15T00:26:24;29.67;;;14.07;;
5351;SDS011;2698;51.454;6.736;2022-11-15T00:28:51;21.47;;;13.53;;
5351;SDS011;2698;51.454;6.736;2022-11-15T00:31:18;21.63;;;13.33;;
5351;SDS011;2698;51.454;6.736;2022-11-15T00:33:44;23.43;;;11.57;;
5351;SDS011;2698;51.454;6.736;2022-11-15T00:36:11;21.83;;;11.67;;
5351;SDS011;2698;51.454;6.736;2022-11-15T00:38:40;23.60;;;11.67;;
5351;SDS011;2698;51.454;6.736;2022-11-15T00:41:07;21.47;;;12.30;;
5351;SDS011;2698;51.454;6.736;2022-11-15T00:43:34;16.80;;;11.17;;
5351;SDS011;2698;51.454;6.736;2022-11-15T00:46:00;16.70;;;11.37;;
5351;SDS011;2698;51.454;6.736;2022-11-15T00:48:28;17.50;;;10.47;;
5351;SDS011;2698;51.454;6.736;2022-11-15T00:50:54;16.70;;;9.50;;
5351;SDS011;2698;51.454;6.736;2022-11-15T00:53:21;9.50;;;8.50;;
5351;SDS011;2698;51.454;6.736;2022-11-15T00:55:49;13.27;;;9.40;;
5351;SDS011;2698;51.454;6.736;2022-11-15T00:58:16;12.47;;;10.27;;
5351;SDS011;2698;51.454;6.736;2022-11-15T01:00:43;12.03;;;9.00;;
5351;SDS011;2698;51.454;6.736;2022-11-15T01:03:09;11.23;;;9.03;;
5351;SDS011;2698;51.454;6.736;2022-11-15T01:05:36;11.10;;;9.73;;
5351;SDS011;2698;51.454;6.736;2022-11-15T01:08:03;13.80;;;10.37;;
5351;SDS011;2698;51.454;6.736;2022-11-15T01:10:30;14.93;;;9.80;;
5351;SDS011;2698;51.454;6.736;2022-11-15T01:12:58;15.93;;;9.63;;
5351;SDS011;2698;51.454;6.736;2022-11-15T01:15:25;16.20;;;9.97;;
5351;SDS011;2698;51.454;6.736;2022-11-15T01:17:52;21.80;;;10.07;;
5351;SDS011;2698;51.454;6.736;2022-11-15T01:20:19;18.57;;;10.83;;
5351;SDS011;2698;51.454;6.736;2022-11-15T01:22:46;22.73;;;11.60;;
5351;SDS011;2698;51.454;6.736;2022-11-15T01:25:13;19.03;;;11.17;;
5351;SDS011;2698;51.454;6.736;2022-11-15T01:27:40;20.17;;;10.50;;
5351;SDS011;2698;51.454;6.736;2022-11-15T01:30:08;13.07;;;9.77;;
5351;SDS011;2698;51.454;6.736;2022-11-15T01:32:35;14.20;;;10.47;;
5351;SDS011;2698;51.454;6.736;2022-11-15T01:35:02;21.30;;;11.20;;
5351;SDS011;2698;51.454;6.736;2022-11-15T01:37:29;28.73;;;10.37;;
5351;SDS011;2698;51.454;6.736;2022-11-15T01:39:56;21.43;;;9.43;;
5351;SDS011;2698;51.454;6.736;2022-11-15T01:42:23;14.93;;;10.57;;
5351;SDS011;2698;51.454;6.736;2022-11-15T01:44:50;13.63;;;9.43;;
5351;SDS011;2698;51.454;6.736;2022-11-15T01:47:20;16.10;;;10.47;;
5351;SDS011;2698;51.454;6.736;2022-11-15T01:49:52;15.20;;;10.63;;
5351;SDS011;2698;51.454;6.736;2022-11-15T01:52:22;25.73;;;10.37;;
5351;SDS011;2698;51.454;6.736;2022-11-15T01:54:53;17.60;;;9.70;;
5351;SDS011;2698;51.454;6.736;2022-11-15T01:57:25;13.60;;;10.10;;
5351;SDS011;2698;51.454;6.736;2022-11-15T01:59:52;13.80;;;10.33;;
5351;SDS011;2698;51.454;6.736;2022-11-15T02:02:20;20.17;;;9.83;;
5351;SDS011;2698;51.454;6.736;2022-11-15T02:04:47;12.37;;;10.13;;
5351;SDS011;2698;51.454;6.736;2022-11-15T02:07:15;19.80;;;10.17;;
5351;SDS011;2698;51.454;6.736;2022-11-15T02:09:43;18.10;;;8.40;;
5351;SDS011;2698;51.454;6.736;2022-11-15T02:12:11;12.80;;;8.77;;
5351;SDS011;2698;51.454;6.736;2022-11-15T02:14:42;13.87;;;9.10;;
5351;SDS011;2698;51.454;6.736;2022-11-15T02:17:17;16.20;;;9.07;;
5351;SDS011;2698;51.454;6.736;2022-11-15T02:20:06;13.90;;;9.33;;
5351;SDS011;2698;51.454;6.736;2022-11-15T02:22:51;13.70;;;9.57;;
5351;SDS011;2698;51.454;6.736;2022-11-15T02:25:39;12.47;;;9.20;;
5351;SDS011;2698;51.454;6.736;2022-11-15T02:31:05;15.53;;;9.17;;
5351;SDS011;2698;51.454;6.736;2022-11-15T02:33:39;11.57;;;8.77;;
5351;SDS011;2698;51.454;6.736;2022-11-15T02:36:11;11.33;;;9.13;;
5351;SDS011;2698;51.454;6.736;2022-11-15T02:38:46;18.37;;;10.77;;
5351;SDS011;2698;51.454;6.736;2022-11-15T02:41:20;22.53;;;8.90;;
5351;SDS011;2698;51.454;6.736;2022-11-15T02:43:54;8.77;;;7.90;;
5351;SDS011;2698;51.454;6.736;2022-11-15T02:46:29;12.17;;;8.40;;
5351;SDS011;2698;51.454;6.736;2022-11-15T02:49:18;10.30;;;8.30;;
5351;SDS011;2698;51.454;6.736;2022-11-15T02:51:46;12.33;;;8.57;;
5351;SDS011;2698;51.454;6.736;2022-11-15T02:54:15;13.90;;;8.53;;
5351;SDS011;2698;51.454;6.736;2022-11-15T02:56:46;23.70;;;10.00;;
5351;SDS011;2698;51.454;6.736;2022-11-15T02:59:19;18.63;;;9.93;;
5351;SDS011;2698;51.454;6.736;2022-11-15T03:02:11;10.83;;;9.47;;
5351;SDS011;2698;51.454;6.736;2022-11-15T03:04:48;15.33;;;9.60;;
5351;SDS011;2698;51.454;6.736;2022-11-15T03:07:23;14.30;;;9.30;;
5351;SDS011;2698;51.454;6.736;2022-11-15T03:09:56;12.50;;;9.20;;
5351;SDS011;2698;51.454;6.736;2022-11-15T03:12:34;9.10;;;7.83;;
5351;SDS011;2698;51.454;6.736;2022-11-15T03:15:07;14.70;;;8.93;;
5351;SDS011;2698;51.454;6.736;2022-11-15T03:17:40;19.17;;;9.80;;
5351;SDS011;2698;51.454;6.736;2022-11-15T03:20:12;11.93;;;8.37;;
5351;SDS011;2698;51.454;6.736;2022-11-15T03:22:42;12.50;;;8.43;;
5351;SDS011;2698;51.454;6.736;2022-11-15T03:25:12;14.03;;;9.20;;
5351;SDS011;2698;51.454;6.736;2022-11-15T03:27:44;13.30;;;8.93;;
5351;SDS011;2698;51.454;6.736;2022-11-15T03:30:16;16.23;;;9.10;;
5351;SDS011;2698;51.454;6.736;2022-11-15T03:32:46;12.00;;;9.43;;
5351;SDS011;2698;51.454;6.736;2022-11-15T03:35:20;14.57;;;10.00;;
5351;SDS011;2698;51.454;6.736;2022-11-15T03:37:54;11.47;;;9.10;;
5351;SDS011;2698;51.454;6.736;2022-11-15T03:40:27;13.23;;;10.17;;
5351;SDS011;2698;51.454;6.736;2022-11-15T03:43:00;16.13;;;9.43;;
5351;SDS011;2698;51.454;6.736;2022-11-15T03:45:33;18.07;;;10.20;;
5351;SDS011;2698;51.454;6.736;2022-11-15T03:48:08;16.90;;;10.20;;
5351;SDS011;2698;51.454;6.736;2022-11-15T03:50:39;16.13;;;10.20;;
5351;SDS011;2698;51.454;6.736;2022-11-15T03:53:07;15.60;;;9.87;;
5351;SDS011;2698;51.454;6.736;2022-11-15T03:55:35;14.33;;;8.77;;
5351;SDS011;2698;51.454;6.736;2022-11-15T03:58:02;17.43;;;10.10;;
5351;SDS011;2698;51.454;6.736;2022-11-15T04:00:28;15.60;;;10.20;;
5351;SDS011;2698;51.454;6.736;2022-11-15T04:02:56;13.10;;;9.53;;
5351;SDS011;2698;51.454;6.736;2022-11-15T04:05:24;14.30;;;9.13;;
5351;SDS011;2698;51.454;6.736;2022-11-15T04:07:51;11.50;;;9.27;;
5351;SDS011;2698;51.454;6.736;2022-11-15T04:10:18;14.23;;;9.77;;
5351;SDS011;2698;51.454;6.736;2022-11-15T04:12:45;16.07;;;9.50;;
5351;SDS011;2698;51.454;6.736;2022-11-15T04:15:13;11.37;;;8.77;;
5351;SDS011;2698;51.454;6.736;2022-11-15T04:17:43;15.53;;;8.60;;
5351;SDS011;2698;51.454;6.736;2022-11-15T04:20:11;11.80;;;9.30;;
5351;SDS011;2698;51.454;6.736;2022-11-15T04:22:59;10.70;;;8.40;;
5351;SDS011;2698;51.454;6.736;2022-11-15T04:25:45;10.53;;;8.60;;
5351;SDS011;2698;51.454;6.736;2022-11-15T04:28:16;13.70;;;9.10;;
5351;SDS011;2698;51.454;6.736;2022-11-15T04:30:42;11.67;;;7.90;;
5351;SDS011;2698;51.454;6.736;2022-11-15T04:33:09;8.40;;;7.40;;
5351;SDS011;2698;51.454;6.736;2022-11-15T04:35:36;13.43;;;8.87;;
5351;SDS011;2698;51.454;6.736;2022-11-15T04:38:05;8.30;;;7.20;;
5351;SDS011;2698;51.454;6.736;2022-11-15T04:40:32;9.03;;;7.80;;
5351;SDS011;2698;51.454;6.736;2022-11-15T04:42:59;12.93;;;8.50;;
5351;SDS011;2698;51.454;6.736;2022-11-15T04:45:26;7.93;;;7.13;;
5351;SDS011;2698;51.454;6.736;2022-11-15T04:47:52;7.83;;;7.03;;
5351;SDS011;2698;51.454;6.736;2022-11-15T04:50:19;10.33;;;7.10;;
5351;SDS011;2698;51.454;6.736;2022-11-15T04:52:49;8.00;;;7.20;;
5351;SDS011;2698;51.454;6.736;2022-11-15T04:55:18;8.90;;;8.00;;
5351;SDS011;2698;51.454;6.736;2022-11-15T04:57:45;9.67;;;6.63;;
5351;SDS011;2698;51.454;6.736;2022-11-15T05:00:13;12.53;;;7.17;;
5351;SDS011;2698;51.454;6.736;2022-11-15T05:02:41;9.00;;;7.90;;
5351;SDS011;2698;51.454;6.736;2022-11-15T05:05:26;10.80;;;7.80;;
5351;SDS011;2698;51.454;6.736;2022-11-15T05:07:52;11.67;;;7.97;;
5351;SDS011;2698;51.454;6.736;2022-11-15T05:10:20;13.60;;;6.90;;
5351;SDS011;2698;51.454;6.736;2022-11-15T05:12:47;11.63;;;6.30;;
5351;SDS011;2698;51.454;6.736;2022-11-15T05:15:14;8.97;;;7.10;;
5351;SDS011;2698;51.454;6.736;2022-11-15T05:17:41;13.60;;;7.43;;
5351;SDS011;2698;51.454;6.736;2022-11-15T05:20:08;7.77;;;6.80;;
5351;SDS011;2698;51.454;6.736;2022-11-15T05:22:36;12.40;;;6.97;;
5351;SDS011;2698;51.454;6.736;2022-11-15T05:25:03;8.33;;;5.90;;
5351;SDS011;2698;51.454;6.736;2022-11-15T05:27:32;7.47;;;6.20;;
5351;SDS011;2698;51.454;6.736;2022-11-15T05:29:58;10.00;;;7.17;;
5351;SDS011;2698;51.454;6.736;2022-11-15T05:32:25;8.70;;;6.50;;
5351;SDS011;2698;51.454;6.736;2022-11-15T05:34:53;7.70;;;6.17;;
5351;SDS011;2698;51.454;6.736;2022-11-15T05:37:20;13.03;;;6.20;;
5351;SDS011;2698;51.454;6.736;2022-11-15T05:39:47;9.87;;;6.33;;
5351;SDS011;2698;51.454;6.736;2022-11-15T05:42:14;12.40;;;7.33;;
5351;SDS011;2698;51.454;6.736;2022-11-15T05:44:44;8.50;;;6.90;;
5351;SDS011;2698;51.454;6.736;2022-11-15T05:47:15;12.27;;;7.60;;
5351;SDS011;2698;51.454;6.736;2022-11-15T05:49:45;9.87;;;7.00;;
5351;SDS011;2698;51.454;6.736;2022-11-15T05:52:16;7.17;;;6.23;;
5351;SDS011;2698;51.454;6.736;2022-11-15T05:54:44;8.07;;;7.27;;
5351;SDS011;2698;51.454;6.736;2022-11-15T05:57:11;10.90;;;7.63;;
5351;SDS011;2698;51.454;6.736;2022-11-15T05:59:38;11.10;;;7.53;;
5351;SDS011;2698;51.454;6.736;2022-11-15T06:02:07;18.20;;;8.57;;
5351;SDS011;2698;51.454;6.736;2022-11-15T06:04:34;9.93;;;7.50;;
5351;SDS011;2698;51.454;6.736;2022-11-15T06:07:00;13.53;;;8.10;;
5351;SDS011;2698;51.454;6.736;2022-11-15T06:09:27;9.20;;;8.30;;
5351;SDS011;2698;51.454;6.736;2022-11-15T06:11:54;14.37;;;7.77;;
5351;SDS011;2698;51.454;6.736;2022-11-15T06:14:21;11.30;;;7.80;;
5351;SDS011;2698;51.454;6.736;2022-11-15T06:16:47;9.00;;;7.67;;
5351;SDS011;2698;51.454;6.736;2022-11-15T06:19:15;12.83;;;8.13;;
5351;SDS011;2698;51.454;6.736;2022-11-15T06:21:42;10.03;;;7.87;;
5351;SDS011;2698;51.454;6.736;2022-11-15T06:24:09;11.80;;;8.37;;
5351;SDS011;2698;51.454;6.736;2022-11-15T06:26:35;10.43;;;8.00;;
5351;SDS011;2698;51.454;6.736;2022-11-15T06:29:02;12.00;;;8.30;;
5351;SDS011;2698;51.454;6.736;2022-11-15T06:31:29;23.67;;;9.00;;
5351;SDS011;2698;51.454;6.736;2022-11-15T06:33:56;10.00;;;7.40;;
5351;SDS011;2698;51.454;6.736;2022-11-15T06:36:24;9.93;;;7.93;;
5351;SDS011;2698;51.454;6.736;2022-11-15T06:38:51;12.70;;;7.53;;
5351;SDS011;2698;51.454;6.736;2022-11-15T06:41:18;14.57;;;9.60;;
5351;SDS011;2698;51.454;6.736;2022-11-15T06:43:46;13.37;;;8.77;;
5351;SDS011;2698;51.454;6.736;2022-11-15T06:46:12;9.93;;;7.70;;
5351;SDS011;2698;51.454;6.736;2022-11-15T06:48:39;11.67;;;8.23;;
5351;SDS011;2698;51.454;6.736;2022-11-15T06:51:06;13.03;;;7.60;;
5351;SDS011;2698;51.454;6.736;2022-11-15T06:53:34;9.43;;;8.50;;
5351;SDS011;2698;51.454;6.736;2022-11-15T06:56:01;8.57;;;7.17;;
5351;SDS011;2698;51.454;6.736;2022-11-15T06:58:29;8.30;;;7.50;;
5351;SDS011;2698;51.454;6.736;2022-11-15T07:00:58;10.03;;;6.60;;
5351;SDS011;2698;51.454;6.736;2022-11-15T07:03:25;8.70;;;6.50;;
5351;SDS011;2698;51.454;6.736;2022-11-15T07:05:52;8.40;;;6.77;;
5351;SDS011;2698;51.454;6.736;2022-11-15T07:08:20;13.80;;;7.43;;
5351;SDS011;2698;51.454;6.736;2022-11-15T07:10:48;14.43;;;8.27;;
5351;SDS011;2698;51.454;6.736;2022-11-15T07:13:15;8.93;;;8.03;;
5351;SDS011;2698;51.454;6.736;2022-11-15T07:15:42;9.53;;;8.10;;
5351;SDS011;2698;51.454;6.736;2022-11-15T07:18:08;12.83;;;6.80;;
5351;SDS011;2698;51.454;6.736;2022-11-15T07:20:35;12.90;;;6.97;;
5351;SDS011;2698;51.454;6.736;2022-11-15T07:23:02;11.50;;;7.20;;
5351;SDS011;2698;51.454;6.736;2022-11-15T07:25:31;13.30;;;7.97;;
5351;SDS011;2698;51.454;6.736;2022-11-15T07:27:59;9.60;;;6.73;;
5351;SDS011;2698;51.454;6.736;2022-11-15T07:30:26;11.17;;;7.23;;
5351;SDS011;2698;51.454;6.736;2022-11-15T07:32:53;8.27;;;7.13;;
5351;SDS011;2698;51.454;6.736;2022-11-15T07:35:20;11.00;;;7.40;;
5351;SDS011;2698;51.454;6.736;2022-11-15T07:37:52;11.10;;;7.27;;
5351;SDS011;2698;51.454;6.736;2022-11-15T07:40:20;11.53;;;8.33;;
5351;SDS011;2698;51.454;6.736;2022-11-15T07:42:47;19.47;;;8.63;;
5351;SDS011;2698;51.454;6.736;2022-11-15T07:45:22;17.57;;;9.97;;
5351;SDS011;2698;51.454;6.736;2022-11-15T07:47:50;10.13;;;7.13;;
5351;SDS011;2698;51.454;6.736;2022-11-15T07:50:17;6.03;;;4.93;;
5351;SDS011;2698;51.454;6.736;2022-11-15T07:52:44;6.53;;;4.37;;
5351;SDS011;2698;51.454;6.736;2022-11-15T07:55:11;5.30;;;3.63;;
5351;SDS011;2698;51.454;6.736;2022-11-15T07:57:38;9.73;;;3.77;;
5351;SDS011;2698;51.454;6.736;2022-11-15T08:00:05;4.23;;;3.57;;
5351;SDS011;2698;51.454;6.736;2022-11-15T08:02:34;6.00;;;3.77;;
5351;SDS011;2698;51.454;6.736;2022-11-15T08:05:00;2.50;;;2.30;;
5351;SDS011;2698;51.454;6.736;2022-11-15T08:07:28;6.67;;;2.20;;
5351;SDS011;2698;51.454;6.736;2022-11-15T08:09:55;5.13;;;1.67;;
5351;SDS011;2698;51.454;6.736;2022-11-15T08:12:22;1.83;;;1.73;;
5351;SDS011;2698;51.454;6.736;2022-11-15T08:14:49;5.10;;;1.30;;
5351;SDS011;2698;51.454;6.736;2022-11-15T08:17:15;1.70;;;1.60;;
5351;SDS011;2698;51.454;6.736;2022-11-15T08:19:44;4.57;;;1.80;;
5351;SDS011;2698;51.454;6.736;2022-11-15T08:22:10;2.20;;;2.00;;
5351;SDS011;2698;51.454;6.736;2022-11-15T08:24:37;2.50;;;1.83;;
5351;SDS011;2698;51.454;6.736;2022-11-15T08:27:04;2.40;;;2.17;;
5351;SDS011;2698;51.454;6.736;2022-11-15T08:29:39;3.10;;;2.40;;
5351;SDS011;2698;51.454;6.736;2022-11-15T08:32:07;5.93;;;2.80;;
5351;SDS011;2698;51.454;6.736;2022-11-15T08:34:34;7.43;;;2.73;;
5351;SDS011;2698;51.454;6.736;2022-11-15T08:37:02;6.47;;;2.87;;
5351;SDS011;2698;51.454;6.736;2022-11-15T08:39:29;4.93;;;2.13;;
5351;SDS011;2698;51.454;6.736;2022-11-15T08:41:56;3.57;;;1.80;;
5351;SDS011;2698;51.454;6.736;2022-11-15T08:44:23;6.10;;;2.23;;
5351;SDS011;2698;51.454;6.736;2022-11-15T08:46:50;1.90;;;1.80;;
5351;SDS011;2698;51.454;6.736;2022-11-15T08:49:16;13.43;;;2.63;;
5351;SDS011;2698;51.454;6.736;2022-11-15T08:51:43;2.20;;;2.07;;
5351;SDS011;2698;51.454;6.736;2022-11-15T08:54:11;4.80;;;2.70;;
5351;SDS011;2698;51.454;6.736;2022-11-15T08:56:38;3.40;;;2.63;;
5351;SDS011;2698;51.454;6.736;2022-11-15T08:59:05;2.40;;;2.17;;
5351;SDS011;2698;51.454;6.736;2022-11-15T09:01:31;2.50;;;1.83;;
5351;SDS011;2698;51.454;6.736;2022-11-15T09:03:58;4.67;;;2.40;;
5351;SDS011;2698;51.454;6.736;2022-11-15T09:06:25;3.40;;;3.20;;
5351;SDS011;2698;51.454;6.736;2022-11-15T09:08:52;5.47;;;3.90;;
5351;SDS011;2698;51.454;6.736;2022-11-15T09:11:20;4.90;;;4.10;;
5351;SDS011;2698;51.454;6.736;2022-11-15T09:13:48;4.40;;;3.50;;
5351;SDS011;2698;51.454;6.736;2022-11-15T09:16:15;5.80;;;3.83;;
5351;SDS011;2698;51.454;6.736;2022-11-15T09:18:42;9.23;;;3.67;;
5351;SDS011;2698;51.454;6.736;2022-11-15T09:21:09;7.50;;;3.70;;
5351;SDS011;2698;51.454;6.736;2022-11-15T09:23:36;6.03;;;5.43;;
5351;SDS011;2698;51.454;6.736;2022-11-15T09:26:03;5.97;;;4.50;;
5351;SDS011;2698;51.454;6.736;2022-11-15T09:28:32;7.50;;;4.13;;
5351;SDS011;2698;51.454;6.736;2022-11-15T09:31:00;6.90;;;3.90;;
5351;SDS011;2698;51.454;6.736;2022-11-15T09:33:28;12.13;;;4.40;;
5351;SDS011;2698;51.454;6.736;2022-11-15T09:35:59;8.43;;;3.83;;
5351;SDS011;2698;51.454;6.736;2022-11-15T09:38:27;5.30;;;3.90;;
5351;SDS011;2698;51.454;6.736;2022-11-15T09:40:57;8.57;;;3.67;;
5351;SDS011;2698;51.454;6.736;2022-11-15T09:43:42;5.53;;;4.27;;
5351;SDS011;2698;51.454;6.736;2022-11-15T09:46:18;4.90;;;4.37;;
5351;SDS011;2698;51.454;6.736;2022-11-15T09:48:51;6.57;;;5.00;;
5351;SDS011;2698;51.454;6.736;2022-11-15T09:51:23;9.37;;;4.23;;
5351;SDS011;2698;51.454;6.736;2022-11-15T09:53:56;11.73;;;4.97;;
5351;SDS011;2698;51.454;6.736;2022-11-15T09:56:28;6.30;;;4.70;;
5351;SDS011;2698;51.454;6.736;2022-11-15T09:59:00;5.80;;;4.60;;
5351;SDS011;2698;51.454;6.736;2022-11-15T10:01:41;11.87;;;6.20;;
5351;SDS011;2698;51.454;6.736;2022-11-15T10:04:13;16.37;;;5.97;;
5351;SDS011;2698;51.454;6.736;2022-11-15T10:06:41;7.13;;;4.90;;
5351;SDS011;2698;51.454;6.736;2022-11-15T10:09:14;5.23;;;3.33;;
5351;SDS011;2698;51.454;6.736;2022-11-15T10:11:45;6.57;;;3.50;;
5351;SDS011;2698;51.454;6.736;2022-11-15T10:14:14;4.50;;;2.90;;
5351;SDS011;2698;51.454;6.736;2022-11-15T10:19:53;4.27;;;3.87;;
5351;SDS011;2698;51.454;6.736;2022-11-15T10:22:28;7.57;;;3.77;;
5351;SDS011;2698;51.454;6.736;2022-11-15T10:25:01;9.77;;;4.27;;
5351;SDS011;2698;51.454;6.736;2022-11-15T10:27:39;6.90;;;2.83;;
5351;SDS011;2698;51.454;6.736;2022-11-15T10:30:12;5.70;;;3.10;;
5351;SDS011;2698;51.454;6.736;2022-11-15T10:32:41;10.70;;;3.37;;
5351;SDS011;2698;51.454;6.736;2022-11-15T10:35:16;5.37;;;3.10;;
5351;SDS011;2698;51.454;6.736;2022-11-15T10:37:47;6.57;;;3.50;;
5351;SDS011;2698;51.454;6.736;2022-11-15T10:40:15;10.30;;;3.10;;
5351;SDS011;2698;51.454;6.736;2022-11-15T10:42:44;7.63;;;3.17;;
5351;SDS011;2698;51.454;6.736;2022-11-15T10:45:24;4.10;;;2.70;;
5351;SDS011;2698;51.454;6.736;2022-11-15T10:47:52;2.07;;;1.97;;
5351;SDS011;2698;51.454;6.736;2022-11-15T10:50:27;3.10;;;2.23;;
5351;SDS011;2698;51.454;6.736;2022-11-15T10:52:55;7.60;;;2.40;;
5351;SDS011;2698;51.454;6.736;2022-11-15T10:55:23;8.47;;;2.80;;
5351;SDS011;2698;51.454;6.736;2022-11-15T10:57:54;9.00;;;2.60;;
5351;SDS011;2698;51.454;6.736;2022-11-15T11:00:28;1.80;;;1.70;;
5351;SDS011;2698;51.454;6.736;2022-11-15T11:02:58;10.13;;;2.20;;
5351;SDS011;2698;51.454;6.736;2022-11-15T11:05:27;3.37;;;2.30;;
5351;SDS011;2698;51.454;6.736;2022-11-15T11:07:57;6.57;;;2.93;;
5351;SDS011;2698;51.454;6.736;2022-11-15T11:10:26;8.60;;;3.57;;
5351;SDS011;2698;51.454;6.736;2022-11-15T11:12:53;5.23;;;3.10;;
5351;SDS011;2698;51.454;6.736;2022-11-15T11:15:20;10.10;;;3.40;;
5351;SDS011;2698;51.454;6.736;2022-11-15T11:17:57;5.20;;;2.60;;
5351;SDS011;2698;51.454;6.736;2022-11-15T11:20:36;4.63;;;2.13;;
5351;SDS011;2698;51.454;6.736;2022-11-15T11:23:19;5.83;;;2.40;;
5351;SDS011;2698;51.454;6.736;2022-11-15T11:26:01;15.40;;;2.37;;
5351;SDS011;2698;51.454;6.736;2022-11-15T11:28:38;5.20;;;2.90;;
5351;SDS011;2698;51.454;6.736;2022-11-15T11:31:16;3.13;;;2.83;;
5351;SDS011;2698;51.454;6.736;2022-11-15T11:33:51;7.20;;;2.10;;
5351;SDS011;2698;51.454;6.736;2022-11-15T11:36:25;13.20;;;2.73;;
5351;SDS011;2698;51.454;6.736;2022-11-15T11:39:02;16.40;;;2.43;;
5351;SDS011;2698;51.454;6.736;2022-11-15T11:41:45;6.40;;;2.17;;
5351;SDS011;2698;51.454;6.736;2022-11-15T11:47:10;18.87;;;2.43;;
5351;SDS011;2698;51.454;6.736;2022-11-15T11:49:41;4.80;;;2.40;;
5351;SDS011;2698;51.454;6.736;2022-11-15T11:52:13;3.30;;;2.00;;
5351;SDS011;2698;51.454;6.736;2022-11-15T11:54:49;5.83;;;2.20;;
5351;SDS011;2698;51.454;6.736;2022-11-15T11:57:25;5.60;;;2.20;;
5351;SDS011;2698;51.454;6.736;2022-11-15T11:59:58;4.63;;;2.43;;
5351;SDS011;2698;51.454;6.736;2022-11-15T12:02:31;9.60;;;3.53;;
5351;SDS011;2698;51.454;6.736;2022-11-15T12:05:03;3.40;;;2.03;;
5351;SDS011;2698;51.454;6.736;2022-11-15T12:07:38;3.77;;;1.23;;
5351;SDS011;2698;51.454;6.736;2022-11-15T12:10:11;3.73;;;1.93;;
5351;SDS011;2698;51.454;6.736;2022-11-15T12:12:47;11.00;;;3.40;;
5351;SDS011;2698;51.454;6.736;2022-11-15T12:15:22;6.50;;;2.83;;
5351;SDS011;2698;51.454;6.736;2022-11-15T12:17:51;6.43;;;1.90;;
5351;SDS011;2698;51.454;6.736;2022-11-15T12:20:20;6.80;;;2.40;;
5351;SDS011;2698;51.454;6.736;2022-11-15T12:22:51;3.97;;;2.30;;
5351;SDS011;2698;51.454;6.736;2022-11-15T12:25:21;1.63;;;1.53;;
5351;SDS011;2698;51.454;6.736;2022-11-15T12:27:54;4.30;;;2.20;;
5351;SDS011;2698;51.454;6.736;2022-11-15T12:30:38;5.77;;;1.90;;
5351;SDS011;2698;51.454;6.736;2022-11-15T12:36:01;2.53;;;1.60;;
5351;SDS011;2698;51.454;6.736;2022-11-15T12:41:18;2.57;;;1.60;;
5351;SDS011;2698;51.454;6.736;2022-11-15T12:43:46;4.53;;;1.50;;
5351;SDS011;2698;51.454;6.736;2022-11-15T12:46:18;8.90;;;1.83;;
5351;SDS011;2698;51.454;6.736;2022-11-15T12:49:11;4.50;;;1.60;;
5351;SDS011;2698;51.454;6.736;2022-11-15T12:52:06;9.20;;;1.60;;
5351;SDS011;2698;51.454;6.736;2022-11-15T12:54:49;2.90;;;1.87;;
5351;SDS011;2698;51.454;6.736;2022-11-15T12:57:39;3.43;;;1.53;;
5351;SDS011;2698;51.454;6.736;2022-11-15T13:03:17;11.67;;;1.80;;
5351;SDS011;2698;51.454;6.736;2022-11-15T13:05:55;2.00;;;1.50;;
5351;SDS011;2698;51.454;6.736;2022-11-15T13:08:41;1.77;;;1.67;;
5351;SDS011;2698;51.454;6.736;2022-11-15T13:17:23;6.53;;;1.70;;
5351;SDS011;2698;51.454;6.736;2022-11-15T13:19:53;3.70;;;1.60;;
5351;SDS011;2698;51.454;6.736;2022-11-15T13:22:26;4.80;;;2.10;;
5351;SDS011;2698;51.454;6.736;2022-11-15T13:25:14;4.93;;;2.00;;
5351;SDS011;2698;51.454;6.736;2022-11-15T13:27:45;3.30;;;1.93;;
5351;SDS011;2698;51.454;6.736;2022-11-15T13:30:13;10.83;;;1.60;;
5351;SDS011;2698;51.454;6.736;2022-11-15T13:32:45;17.47;;;2.07;;
5351;SDS011;2698;51.454;6.736;2022-11-15T13:35:17;6.93;;;2.23;;
5351;SDS011;2698;51.454;6.736;2022-11-15T13:37:48;8.10;;;2.07;;
5351;SDS011;2698;51.454;6.736;2022-11-15T13:40:19;21.03;;;2.17;;
5351;SDS011;2698;51.454;6.736;2022-11-15T13:42:52;3.30;;;1.97;;
5351;SDS011;2698;51.454;6.736;2022-11-15T13:45:19;7.87;;;2.10;;
5351;SDS011;2698;51.454;6.736;2022-11-15T13:47:50;24.57;;;2.07;;
5351;SDS011;2698;51.454;6.736;2022-11-15T13:50:18;7.60;;;2.10;;
5351;SDS011;2698;51.454;6.736;2022-11-15T13:52:50;9.23;;;1.87;;
5351;SDS011;2698;51.454;6.736;2022-11-15T13:55:19;5.57;;;1.93;;
5351;SDS011;2698;51.454;6.736;2022-11-15T13:57:48;7.33;;;1.70;;
5351;SDS011;2698;51.454;6.736;2022-11-15T14:00:27;7.00;;;2.10;;
5351;SDS011;2698;51.454;6.736;2022-11-15T14:03:04;5.00;;;2.00;;
5351;SDS011;2698;51.454;6.736;2022-11-15T14:05:34;2.30;;;2.03;;
5351;SDS011;2698;51.454;6.736;2022-11-15T14:08:02;4.67;;;2.10;;
5351;SDS011;2698;51.454;6.736;2022-11-15T14:10:38;3.70;;;2.43;;
5351;SDS011;2698;51.454;6.736;2022-11-15T14:13:10;5.40;;;2.40;;
5351;SDS011;2698;51.454;6.736;2022-11-15T14:15:53;9.63;;;1.60;;
5351;SDS011;2698;51.454;6.736;2022-11-15T14:21:07;2.60;;;1.60;;
5351;SDS011;2698;51.454;6.736;2022-11-15T14:23:35;3.07;;;1.50;;
5351;SDS011;2698;51.454;6.736;2022-11-15T14:26:02;6.33;;;1.57;;
5351;SDS011;2698;51.454;6.736;2022-11-15T14:28:29;6.80;;;1.80;;
5351;SDS011;2698;51.454;6.736;2022-11-15T14:30:58;4.40;;;1.43;;
5351;SDS011;2698;51.454;6.736;2022-11-15T14:33:27;2.50;;;1.50;;
5351;SDS011;2698;51.454;6.736;2022-11-15T14:35:56;8.73;;;1.63;;
5351;SDS011;2698;51.454;6.736;2022-11-15T14:38:23;5.03;;;1.40;;
5351;SDS011;2698;51.454;6.736;2022-11-15T14:40:51;7.00;;;2.20;;
5351;SDS011;2698;51.454;6.736;2022-11-15T14:43:20;3.80;;;2.33;;
5351;SDS011;2698;51.454;6.736;2022-11-15T14:45:48;8.40;;;2.00;;
5351;SDS011;2698;51.454;6.736;2022-11-15T14:48:14;4.37;;;1.77;;
5351;SDS011;2698;51.454;6.736;2022-11-15T14:50:44;2.57;;;1.70;;
5351;SDS011;2698;51.454;6.736;2022-11-15T14:53:11;5.17;;;1.63;;
5351;SDS011;2698;51.454;6.736;2022-11-15T14:55:40;10.80;;;2.23;;
5351;SDS011;2698;51.454;6.736;2022-11-15T14:58:08;4.20;;;2.23;;
5351;SDS011;2698;51.454;6.736;2022-11-15T15:00:35;4.70;;;2.20;;
5351;SDS011;2698;51.454;6.736;2022-11-15T15:03:03;2.03;;;1.83;;
5351;SDS011;2698;51.454;6.736;2022-11-15T15:05:31;2.00;;;1.90;;
5351;SDS011;2698;51.454;6.736;2022-11-15T15:07:59;3.00;;;2.23;;
5351;SDS011;2698;51.454;6.736;2022-11-15T15:10:29;4.93;;;2.77;;
5351;SDS011;2698;51.454;6.736;2022-11-15T15:12:58;3.90;;;2.30;;
5351;SDS011;2698;51.454;6.736;2022-11-15T15:15:27;5.93;;;1.80;;
5351;SDS011;2698;51.454;6.736;2022-11-15T15:17:58;5.33;;;2.40;;
5351;SDS011;2698;51.454;6.736;2022-11-15T15:20:25;8.83;;;2.67;;
5351;SDS011;2698;51.454;6.736;2022-11-15T15:22:52;7.80;;;2.60;;
5351;SDS011;2698;51.454;6.736;2022-11-15T15:25:20;7.13;;;2.90;;
5351;SDS011;2698;51.454;6.736;2022-11-15T15:27:50;2.97;;;2.67;;
5351;SDS011;2698;51.454;6.736;2022-11-15T15:30:17;3.20;;;2.83;;
5351;SDS011;2698;51.454;6.736;2022-11-15T15:32:45;6.30;;;2.70;;
5351;SDS011;2698;51.454;6.736;2022-11-15T15:35:12;3.03;;;2.60;;
5351;SDS011;2698;51.454;6.736;2022-11-15T15:37:40;4.33;;;3.17;;
5351;SDS011;2698;51.454;6.736;2022-11-15T15:40:10;6.57;;;2.53;;
5351;SDS011;2698;51.454;6.736;2022-11-15T15:42:40;3.17;;;2.93;;
5351;SDS011;2698;51.454;6.736;2022-11-15T15:45:07;5.37;;;2.70;;
5351;SDS011;2698;51.454;6.736;2022-11-15T15:47:35;4.97;;;2.97;;
5351;SDS011;2698;51.454;6.736;2022-11-15T15:50:04;7.67;;;3.83;;
5351;SDS011;2698;51.454;6.736;2022-11-15T15:52:37;3.00;;;2.80;;